NOZ808 ENZV-ENZV
Flight info
| Callsign | NOZ808 |
|---|---|
| Flight time | 0h 14m |
| Altitude | 4000 |
| Route | VFR CIRCUITS 36 4000 FEET OR BELOW |
| Aircraft | B738/M-SDE2E3FGHIRWXY/LB1 |
Departure
| Time | 2026-04-22 15:31 |
|---|---|
| Airport | Stavanger Airport, Sola (ENZV) |
Arrival
| Time | 2026-04-22 15:45 |
|---|---|
| Airport | Stavanger Airport, Sola (ENZV) |
| Time | Latitude | Longitude | Altitude | Speed | Heading |
|---|---|---|---|---|---|
| 2026-04-22 15:09 | 58.88316 | 5.63070 | 30 ft | 0 kts | 255° |
| 2026-04-22 15:23 | 58.88318 | 5.63087 | 30 ft | 2 kts | 255° |
| 2026-04-22 15:23 | 58.88322 | 5.63115 | 30 ft | 2 kts | 255° |
| 2026-04-22 15:24 | 58.88326 | 5.63143 | 30 ft | 2 kts | 255° |
| 2026-04-22 15:24 | 58.88329 | 5.63160 | 30 ft | 0 kts | 255° |
| 2026-04-22 15:27 | 58.88329 | 5.63159 | 30 ft | 0 kts | 255° |
| 2026-04-22 15:27 | 58.88314 | 5.63148 | 30 ft | 4 kts | 155° |
| 2026-04-22 15:27 | 58.88295 | 5.63217 | 30 ft | 6 kts | 115° |
| 2026-04-22 15:27 | 58.88250 | 5.63291 | 31 ft | 12 kts | 167° |
| 2026-04-22 15:28 | 58.88164 | 5.63296 | 30 ft | 11 kts | 191° |
| 2026-04-22 15:28 | 58.88093 | 5.63222 | 30 ft | 11 kts | 208° |
| 2026-04-22 15:28 | 58.88018 | 5.63276 | 29 ft | 13 kts | 129° |
| 2026-04-22 15:28 | 58.87942 | 5.63359 | 29 ft | 13 kts | 191° |
| 2026-04-22 15:29 | 58.87873 | 5.63311 | 27 ft | 9 kts | 201° |
| 2026-04-22 15:29 | 58.87806 | 5.63288 | 27 ft | 10 kts | 181° |
| 2026-04-22 15:29 | 58.87759 | 5.63302 | 27 ft | 5 kts | 142° |
| 2026-04-22 15:30 | 58.87729 | 5.63455 | 27 ft | 11 kts | 108° |
| 2026-04-22 15:30 | 58.87701 | 5.63635 | 30 ft | 9 kts | 107° |
| 2026-04-22 15:30 | 58.87696 | 5.63764 | 30 ft | 9 kts | 40° |
| 2026-04-22 15:30 | 58.87758 | 5.63778 | 30 ft | 8 kts | 360° |
| 2026-04-22 15:31 | 58.87900 | 5.63774 | 30 ft | 52 kts | 359° |
| 2026-04-22 15:31 | 58.88599 | 5.63757 | 41 ft | 141 kts | 358° |
| 2026-04-22 15:31 | 58.89594 | 5.63720 | 836 ft | 144 kts | 356° |
| 2026-04-22 15:31 | 58.90630 | 5.63679 | 1500 ft | 159 kts | 357° |
| 2026-04-22 15:32 | 58.91767 | 5.63659 | 2174 ft | 173 kts | 5° |
| 2026-04-22 15:32 | 58.92969 | 5.64408 | 2569 ft | 192 kts | 26° |
| 2026-04-22 15:32 | 58.93893 | 5.66370 | 2970 ft | 216 kts | 59° |
| 2026-04-22 15:32 | 58.94135 | 5.69399 | 3229 ft | 235 kts | 85° |
| 2026-04-22 15:33 | 58.94019 | 5.72556 | 3414 ft | 244 kts | 98° |
| 2026-04-22 15:33 | 58.93094 | 5.75494 | 3259 ft | 275 kts | 134° |
| 2026-04-22 15:33 | 58.91399 | 5.77547 | 2993 ft | 301 kts | 160° |
| 2026-04-22 15:33 | 58.89266 | 5.78203 | 2816 ft | 316 kts | 181° |
| 2026-04-22 15:34 | 58.87137 | 5.78203 | 2826 ft | 298 kts | 181° |
| 2026-04-22 15:34 | 58.85091 | 5.78189 | 2665 ft | 283 kts | 182° |
| 2026-04-22 15:34 | 58.83179 | 5.78137 | 2534 ft | 270 kts | 183° |
| 2026-04-22 15:34 | 58.81398 | 5.77764 | 2506 ft | 245 kts | 201° |
| 2026-04-22 15:35 | 58.80459 | 5.76742 | 2220 ft | 230 kts | 229° |
| 2026-04-22 15:35 | 58.79843 | 5.73414 | 1839 ft | 179 kts | 280° |
| 2026-04-22 15:35 | 58.80006 | 5.71137 | 1513 ft | 165 kts | 287° |
| 2026-04-22 15:35 | 58.80243 | 5.69085 | 1316 ft | 151 kts | 290° |
| 2026-04-22 15:36 | 58.80615 | 5.67252 | 1109 ft | 143 kts | 308° |
| 2026-04-22 15:36 | 58.81293 | 5.66043 | 1069 ft | 127 kts | 326° |
| 2026-04-22 15:36 | 58.82011 | 5.65130 | 1121 ft | 117 kts | 331° |
| 2026-04-22 15:36 | 58.82728 | 5.64462 | 1050 ft | 116 kts | 339° |
| 2026-04-22 15:37 | 58.83522 | 5.64094 | 929 ft | 118 kts | 352° |
| 2026-04-22 15:37 | 58.84338 | 5.63931 | 717 ft | 117 kts | 354° |
| 2026-04-22 15:37 | 58.85164 | 5.63877 | 511 ft | 119 kts | 358° |
| 2026-04-22 15:37 | 58.86005 | 5.63846 | 315 ft | 122 kts | 355° |
| 2026-04-22 15:38 | 58.86856 | 5.63810 | 124 ft | 122 kts | 356° |
| 2026-04-22 15:38 | 58.88509 | 5.63758 | 33 ft | 148 kts | 359° |
| 2026-04-22 15:38 | 58.89610 | 5.63727 | 709 ft | 166 kts | 358° |
| 2026-04-22 15:39 | 58.90801 | 5.63698 | 1510 ft | 178 kts | 359° |
| 2026-04-22 15:39 | 58.92049 | 5.63730 | 2281 ft | 188 kts | 3° |
| 2026-04-22 15:39 | 58.93325 | 5.64616 | 2840 ft | 209 kts | 30° |
| 2026-04-22 15:39 | 58.94276 | 5.66883 | 2946 ft | 235 kts | 63° |
| 2026-04-22 15:40 | 58.94392 | 5.70070 | 2815 ft | 246 kts | 91° |
| 2026-04-22 15:40 | 58.94090 | 5.73343 | 2645 ft | 245 kts | 99° |
| 2026-04-22 15:40 | 58.93441 | 5.76374 | 2485 ft | 248 kts | 121° |
| 2026-04-22 15:40 | 58.92117 | 5.78516 | 2256 ft | 252 kts | 157° |
| 2026-04-22 15:41 | 58.90393 | 5.79031 | 2109 ft | 246 kts | 181° |
| 2026-04-22 15:41 | 58.88732 | 5.78968 | 2118 ft | 237 kts | 184° |
| 2026-04-22 15:41 | 58.87107 | 5.78872 | 2033 ft | 234 kts | 182° |
| 2026-04-22 15:41 | 58.85496 | 5.78815 | 2019 ft | 227 kts | 182° |
| 2026-04-22 15:42 | 58.83923 | 5.78701 | 2023 ft | 223 kts | 185° |
| 2026-04-22 15:42 | 58.82401 | 5.78296 | 1888 ft | 224 kts | 195° |
| 2026-04-22 15:42 | 58.80993 | 5.77190 | 1818 ft | 217 kts | 220° |
| 2026-04-22 15:42 | 58.80040 | 5.75028 | 1790 ft | 210 kts | 252° |
| 2026-04-22 15:43 | 58.79810 | 5.72309 | 1812 ft | 201 kts | 278° |
| 2026-04-22 15:43 | 58.80029 | 5.69718 | 1892 ft | 194 kts | 292° |
| 2026-04-22 15:43 | 58.80606 | 5.67490 | 1827 ft | 184 kts | 308° |
| 2026-04-22 15:43 | 58.81473 | 5.65770 | 1552 ft | 176 kts | 325° |
| 2026-04-22 15:44 | 58.82485 | 5.64568 | 1120 ft | 164 kts | 336° |
| 2026-04-22 15:44 | 58.83499 | 5.64061 | 879 ft | 147 kts | 352° |
| 2026-04-22 15:44 | 58.84485 | 5.63942 | 655 ft | 137 kts | 355° |
| 2026-04-22 15:44 | 58.85379 | 5.63873 | 452 ft | 123 kts | 355° |
| 2026-04-22 15:45 | 58.86218 | 5.63844 | 248 ft | 122 kts | 356° |
| 2026-04-22 15:45 | 58.87047 | 5.63806 | 63 ft | 115 kts | 356° |
| 2026-04-22 15:45 | 58.87780 | 5.63779 | 30 ft | 85 kts | 359° |
| 2026-04-22 15:45 | 58.88186 | 5.63764 | 32 ft | 46 kts | 359° |
| 2026-04-22 15:46 | 58.88469 | 5.63762 | 30 ft | 32 kts | 359° |
| 2026-04-22 15:46 | 58.88673 | 5.63752 | 28 ft | 15 kts | 347° |
| 2026-04-22 15:46 | 58.88709 | 5.63619 | 29 ft | 7 kts | 269° |
| 2026-04-22 15:46 | 58.88709 | 5.63507 | 29 ft | 8 kts | 267° |
| 2026-04-22 15:47 | 58.88689 | 5.63422 | 31 ft | 5 kts | 201° |
| 2026-04-22 15:47 | 58.88615 | 5.63421 | 33 ft | 16 kts | 177° |
| 2026-04-22 15:47 | 58.88500 | 5.63428 | 33 ft | 16 kts | 178° |
| 2026-04-22 15:47 | 58.88442 | 5.63342 | 33 ft | 11 kts | 259° |
| 2026-04-22 15:48 | 58.88401 | 5.63222 | 32 ft | 11 kts | 189° |
| 2026-04-22 15:48 | 58.88359 | 5.63217 | 32 ft | 7 kts | 186° |
| 2026-04-22 15:48 | 58.88327 | 5.63149 | 30 ft | 8 kts | 259° |
| 2026-04-22 15:48 | 58.88318 | 5.63082 | 30 ft | 4 kts | 255° |
| 2026-04-22 15:49 | 58.88316 | 5.63070 | 30 ft | 0 kts | 255° |